createdAt,value
2024-01-26T00:01:28.828Z,101833.81
2024-01-26T00:04:01.471Z,101840.44
2024-01-26T00:06:32.352Z,101838.78
2024-01-26T00:09:22.967Z,101845.94
2024-01-26T00:11:53.457Z,101849.22
2024-01-26T00:14:23.795Z,101852.28
2024-01-26T00:16:54.284Z,101863.00
2024-01-26T00:19:24.778Z,101854.78
2024-01-26T00:21:55.098Z,101858.31
2024-01-26T00:24:25.496Z,101846.78
2024-01-26T00:26:55.902Z,101851.72
2024-01-26T00:29:26.233Z,101852.03
2024-01-26T00:31:56.599Z,101861.34
2024-01-26T00:34:27.125Z,101860.78
2024-01-26T00:36:57.948Z,101864.63
2024-01-26T00:39:28.392Z,101866.28
2024-01-26T00:41:59.021Z,101875.66
2024-01-26T00:44:29.352Z,101876.78
2024-01-26T00:46:59.530Z,101880.59
2024-01-26T00:49:34.820Z,101894.91
2024-01-26T00:52:12.467Z,101903.16
2024-01-26T00:54:43.143Z,101896.31
2024-01-26T00:57:13.679Z,101898.22
2024-01-26T00:59:45.285Z,101899.88
2024-01-26T01:02:16.285Z,101893.56
2024-01-26T01:04:46.815Z,101905.09
2024-01-26T01:07:17.104Z,101905.66
2024-01-26T01:09:47.584Z,101910.31
2024-01-26T01:12:18.132Z,101907.84
2024-01-26T01:14:50.789Z,101903.72
2024-01-26T01:17:21.400Z,101917.47
2024-01-26T01:19:51.995Z,101910.59
2024-01-26T01:22:22.508Z,101919.13
2024-01-26T01:24:53.067Z,101922.16
2024-01-26T01:27:23.377Z,101937.84
2024-01-26T01:29:54.100Z,101934.53
2024-01-26T01:32:24.604Z,101932.88
2024-01-26T01:34:56.480Z,101937.28
2024-01-26T01:37:26.983Z,101953.81
2024-01-26T01:39:57.379Z,101949.13
2024-01-26T01:42:28.861Z,101957.38
2024-01-26T01:44:59.362Z,101968.66
2024-01-26T01:47:31.739Z,101974.19
2024-01-26T01:50:02.297Z,101981.34
2024-01-26T01:52:34.065Z,101983.50
2024-01-26T01:55:05.288Z,101986.81
2024-01-26T01:57:36.366Z,101993.41
2024-01-26T02:00:08.374Z,101987.66
2024-01-26T02:02:40.304Z,101990.41
2024-01-26T02:05:11.949Z,101997.56
2024-01-26T02:07:42.208Z,102002.53
2024-01-26T02:10:15.588Z,102007.47
2024-01-26T02:12:46.568Z,102007.47
2024-01-26T02:15:18.242Z,101996.47
2024-01-26T02:17:48.940Z,101992.88
2024-01-26T02:20:20.359Z,102000.84
2024-01-26T02:22:51.542Z,101987.38
2024-01-26T02:25:22.123Z,101993.44
2024-01-26T02:27:56.025Z,101995.88
2024-01-26T02:30:26.329Z,101990.38
2024-01-26T02:32:56.913Z,101991.78
2024-01-26T02:35:27.497Z,101993.16
2024-01-26T02:37:57.966Z,101989.00
2024-01-26T02:40:28.473Z,101983.78
2024-01-26T02:42:59.275Z,101982.97
2024-01-26T02:45:30.860Z,101980.78
2024-01-26T02:48:01.420Z,101981.84
2024-01-26T02:50:31.956Z,101982.94
2024-01-26T02:53:02.320Z,101979.13
2024-01-26T02:55:32.485Z,101980.78
2024-01-26T02:58:02.633Z,101975.81
2024-01-26T03:00:32.829Z,101972.50
2024-01-26T03:03:03.354Z,101980.75
2024-01-26T03:05:33.772Z,101981.03
2024-01-26T03:08:04.165Z,101990.66
2024-01-26T03:10:34.520Z,101984.91
2024-01-26T03:13:04.851Z,101998.38
2024-01-26T03:15:35.263Z,101999.22
2024-01-26T03:18:06.520Z,101996.72
2024-01-26T03:20:36.688Z,101985.72
2024-01-26T03:23:07.053Z,101979.94
2024-01-26T03:25:37.373Z,101988.47
2024-01-26T03:28:08.375Z,101985.16
2024-01-26T03:30:38.746Z,101984.88
2024-01-26T03:33:10.308Z,101961.75
2024-01-26T03:35:40.900Z,101981.31
2024-01-26T03:38:11.257Z,101976.34
2024-01-26T03:40:41.451Z,101976.06
2024-01-26T03:43:11.827Z,101965.88
2024-01-26T03:45:42.140Z,101961.19
2024-01-26T03:48:12.768Z,101958.72
2024-01-26T03:50:43.786Z,101957.34
2024-01-26T03:53:15.014Z,101943.03
2024-01-26T03:55:45.386Z,101933.13
2024-01-26T03:58:15.705Z,101918.50
2024-01-26T04:00:46.085Z,101922.66
2024-01-26T04:03:16.728Z,101924.00
2024-01-26T04:05:47.163Z,101917.69
2024-01-26T04:08:18.293Z,101909.16
2024-01-26T04:10:48.752Z,101909.44
2024-01-26T04:13:19.312Z,101901.19
2024-01-26T04:15:50.550Z,101905.84
2024-01-26T04:18:20.832Z,101898.44
2024-01-26T04:20:55.039Z,101900.59
2024-01-26T04:23:25.508Z,101891.22
2024-01-26T04:25:55.850Z,101900.03
2024-01-26T04:28:26.253Z,101891.78
2024-01-26T04:30:56.992Z,101892.63
2024-01-26T04:33:27.617Z,101887.91
2024-01-26T04:35:58.462Z,101879.66
2024-01-26T04:38:28.734Z,101867.28
2024-01-26T04:40:59.146Z,101870.56
2024-01-26T04:43:29.509Z,101856.81
2024-01-26T04:46:00.128Z,101849.38
2024-01-26T04:48:30.808Z,101858.75
2024-01-26T04:51:01.288Z,101850.19
2024-01-26T04:53:31.811Z,101845.53
2024-01-26T04:56:02.150Z,101842.78
2024-01-26T04:58:32.500Z,101835.31
2024-01-26T05:01:02.790Z,101825.97
2024-01-26T05:03:33.581Z,101820.44
2024-01-26T05:06:04.387Z,101813.28
2024-01-26T05:08:34.902Z,101823.75
2024-01-26T05:11:05.317Z,101818.25
2024-01-26T05:13:35.752Z,101810.53
2024-01-26T05:16:06.171Z,101805.28
2024-01-26T05:18:36.845Z,101801.44
2024-01-26T05:21:07.320Z,101801.97
2024-01-26T05:23:37.750Z,101790.16
2024-01-26T05:26:08.177Z,101787.94
2024-01-26T05:28:39.812Z,101779.94
2024-01-26T05:31:10.264Z,101764.50
2024-01-26T05:33:40.729Z,101766.69
2024-01-26T05:36:11.444Z,101769.38
2024-01-26T05:38:41.742Z,101759.50
2024-01-26T05:41:11.869Z,101749.31
2024-01-26T05:43:43.396Z,101752.06
2024-01-26T05:46:13.731Z,101752.06
2024-01-26T05:48:48.263Z,101759.25
2024-01-26T05:51:18.830Z,101751.50
2024-01-26T05:53:49.429Z,101736.63
2024-01-26T05:56:19.863Z,101745.44
2024-01-26T05:58:50.257Z,101728.06
2024-01-26T06:01:20.754Z,101733.84
2024-01-26T06:03:51.125Z,101725.06
2024-01-26T06:06:22.625Z,101723.94
2024-01-26T06:08:53.075Z,101720.63
2024-01-26T06:11:24.360Z,101709.34
2024-01-26T06:13:55.362Z,101708.22
2024-01-26T06:16:25.800Z,101704.66
2024-01-26T06:18:56.314Z,101699.41
2024-01-26T06:21:26.791Z,101684.28
2024-01-26T06:23:57.358Z,101689.78
2024-01-26T06:26:29.094Z,101688.38
2024-01-26T06:28:59.426Z,101675.44
2024-01-26T06:31:30.612Z,101681.44
2024-01-26T06:34:00.996Z,101675.13
2024-01-26T06:36:31.673Z,101676.47
2024-01-26T06:39:02.089Z,101669.31
2024-01-26T06:41:32.634Z,101666.88
2024-01-26T06:44:02.996Z,101655.56
2024-01-26T06:46:33.347Z,101661.06
2024-01-26T06:49:05.806Z,101648.41
2024-01-26T06:51:36.273Z,101638.50
2024-01-26T06:54:06.792Z,101641.22
2024-01-26T06:56:37.262Z,101642.03
2024-01-26T06:59:07.920Z,101632.66
2024-01-26T07:01:38.252Z,101628.53
2024-01-26T07:04:09.016Z,101628.28
2024-01-26T07:06:39.740Z,101610.91
2024-01-26T07:09:12.140Z,101610.31
2024-01-26T07:11:42.641Z,101600.66
2024-01-26T07:14:16.788Z,101594.88
2024-01-26T07:16:47.422Z,101595.13
2024-01-26T07:19:18.602Z,101588.25
2024-01-26T07:21:49.051Z,101579.97
2024-01-26T07:24:19.644Z,101577.22
2024-01-26T07:26:50.133Z,101572.81
2024-01-26T07:29:20.691Z,101564.25
2024-01-26T07:31:51.019Z,101548.56
2024-01-26T07:34:21.642Z,101552.97
2024-01-26T07:36:52.000Z,101550.72
2024-01-26T07:39:25.444Z,101543.56
2024-01-26T07:41:55.906Z,101543.84
2024-01-26T07:44:26.249Z,101544.69
2024-01-26T07:46:57.017Z,101537.78
2024-01-26T07:49:30.180Z,101538.88
2024-01-26T07:52:02.085Z,101535.00
2024-01-26T07:54:32.461Z,101529.78
2024-01-26T07:57:02.936Z,101531.41
2024-01-26T07:59:33.248Z,101524.81
2024-01-26T08:02:03.848Z,101522.88
2024-01-26T08:04:34.292Z,101520.66
2024-01-26T08:07:04.726Z,101514.31
2024-01-26T08:09:35.130Z,101509.31
2024-01-26T08:12:05.688Z,101513.72
2024-01-26T08:14:36.067Z,101506.78
2024-01-26T08:17:06.666Z,101497.41
2024-01-26T08:19:39.096Z,101499.91
2024-01-26T08:22:09.774Z,101502.94
2024-01-26T08:24:40.390Z,101502.94
2024-01-26T08:27:10.992Z,101499.63
2024-01-26T08:29:43.389Z,101494.44
2024-01-26T08:32:13.962Z,101488.91
2024-01-26T08:34:46.256Z,101486.16
2024-01-26T08:37:17.095Z,101481.47
2024-01-26T08:39:48.450Z,101481.47
2024-01-26T08:42:19.083Z,101476.19
2024-01-26T08:44:49.516Z,101481.19
2024-01-26T08:47:20.050Z,101478.44
2024-01-26T08:49:50.545Z,101478.13
2024-01-26T08:52:21.045Z,101479.50
2024-01-26T08:54:51.497Z,101477.84
2024-01-26T08:57:22.115Z,101475.66
2024-01-26T08:59:52.543Z,101470.34
2024-01-26T09:02:23.175Z,101459.91
2024-01-26T09:04:53.565Z,101471.22
2024-01-26T09:07:25.676Z,101469.00
2024-01-26T09:09:56.804Z,101464.84
2024-01-26T09:12:27.341Z,101475.66
2024-01-26T09:14:58.463Z,101467.38
2024-01-26T09:17:29.496Z,101474.50
2024-01-26T09:20:00.069Z,101470.34
2024-01-26T09:22:31.703Z,101480.84
2024-01-26T09:25:02.077Z,101472.28
2024-01-26T09:27:32.614Z,101476.69
2024-01-26T09:30:04.199Z,101470.34
2024-01-26T09:32:34.820Z,101473.66
2024-01-26T09:35:08.366Z,101467.59
2024-01-26T09:37:38.993Z,101466.25
2024-01-26T09:40:10.107Z,101467.28
2024-01-26T09:42:40.607Z,101472.00
2024-01-26T09:45:15.542Z,101474.44
2024-01-26T09:47:48.965Z,101484.66
2024-01-26T09:50:22.919Z,101486.31
2024-01-26T09:52:54.089Z,101484.66
2024-01-26T09:55:24.689Z,101479.16
2024-01-26T09:57:59.542Z,101487.97
2024-01-26T10:00:30.710Z,101490.19
2024-01-26T10:03:01.246Z,101496.81
2024-01-26T10:05:31.794Z,101502.00
2024-01-26T10:08:02.174Z,101500.09
2024-01-26T10:10:32.619Z,101502.31
2024-01-26T10:13:03.002Z,101501.22
2024-01-26T10:15:33.606Z,101505.88
2024-01-26T10:18:05.913Z,101503.13
2024-01-26T10:20:36.067Z,101502.53
2024-01-26T10:23:08.257Z,101512.44
2024-01-26T10:25:39.624Z,101508.84
2024-01-26T10:28:13.681Z,101510.28
2024-01-26T10:30:47.541Z,101505.59
2024-01-26T10:33:18.261Z,101509.16
2024-01-26T10:35:51.292Z,101513.03
2024-01-26T10:38:22.547Z,101498.72
2024-01-26T10:40:52.631Z,101510.28
2024-01-26T10:43:24.151Z,101513.63
2024-01-26T10:45:55.423Z,101513.63
2024-01-26T10:48:27.858Z,101512.50
2024-01-26T10:51:00.329Z,101527.13
2024-01-26T10:53:31.132Z,101522.72
2024-01-26T10:56:02.301Z,101523.84
2024-01-26T10:58:32.989Z,101532.38
2024-01-26T11:01:03.727Z,101521.34
2024-01-26T11:03:34.463Z,101532.91
2024-01-26T11:06:05.142Z,101524.38
2024-01-26T11:08:36.977Z,101530.16
2024-01-26T11:11:07.793Z,101531.78
2024-01-26T11:13:41.100Z,101532.91
2024-01-26T11:16:11.868Z,101530.16
2024-01-26T11:18:42.396Z,101542.28
2024-01-26T11:21:23.184Z,101542.00
2024-01-26T11:23:53.780Z,101543.06
2024-01-26T11:26:24.388Z,101554.38
2024-01-26T11:28:54.640Z,101544.19
2024-01-26T11:31:32.740Z,101555.50
2024-01-26T11:34:03.217Z,101559.88
2024-01-26T11:36:35.970Z,101561.22
2024-01-26T11:39:06.664Z,101551.84
2024-01-26T11:41:37.139Z,101553.78
2024-01-26T11:44:14.610Z,101555.13
2024-01-26T11:46:46.181Z,101563.72
2024-01-26T11:49:17.238Z,101566.47
2024-01-26T11:51:47.571Z,101576.38
2024-01-26T11:54:18.720Z,101572.78
2024-01-26T11:56:50.124Z,101571.13
2024-01-26T11:59:20.775Z,101574.72
2024-01-26T12:01:51.249Z,101575.84
2024-01-26T12:04:22.111Z,101577.19
2024-01-26T12:06:52.514Z,101589.09
2024-01-26T12:09:24.572Z,101583.59
2024-01-26T12:11:55.265Z,101598.19
2024-01-26T12:14:25.825Z,101595.72
2024-01-26T12:16:56.219Z,101595.72
2024-01-26T12:19:26.870Z,101595.72
2024-01-26T12:21:57.178Z,101596.56
2024-01-26T12:24:27.739Z,101604.00
2024-01-26T12:26:58.822Z,101602.88
2024-01-26T12:29:29.299Z,101607.59
2024-01-26T12:32:11.700Z,101605.94
2024-01-26T12:34:42.353Z,101608.38
2024-01-26T12:37:16.484Z,101617.19
2024-01-26T12:39:46.865Z,101616.34
2024-01-26T12:42:17.650Z,101618.31
2024-01-26T12:44:49.542Z,101632.09
2024-01-26T12:47:21.530Z,101642.31
2024-01-26T12:49:53.500Z,101638.41
2024-01-26T12:52:24.159Z,101640.03
2024-01-26T12:54:58.574Z,101644.53
2024-01-26T12:57:28.926Z,101650.03
2024-01-26T12:59:59.297Z,101653.91
2024-01-26T13:02:29.772Z,101655.81
2024-01-26T13:05:00.281Z,101669.34
2024-01-26T13:07:31.306Z,101667.38
2024-01-26T13:10:01.621Z,101678.41
2024-01-26T13:12:32.138Z,101676.75
2024-01-26T13:15:02.530Z,101678.94
2024-01-26T13:17:32.976Z,101687.22
2024-01-26T13:20:08.779Z,101686.69
2024-01-26T13:22:46.509Z,101693.03
2024-01-26T13:25:17.262Z,101693.53
2024-01-26T13:27:48.163Z,101699.03
2024-01-26T13:30:19.626Z,101714.78
2024-01-26T13:32:51.356Z,101710.59
2024-01-26T13:35:21.417Z,101707.03
2024-01-26T13:37:52.019Z,101714.19
2024-01-26T13:40:22.620Z,101723.59
2024-01-26T13:42:53.256Z,101727.97
2024-01-26T13:45:23.969Z,101727.41
2024-01-26T13:48:00.877Z,101728.22
2024-01-26T13:50:35.750Z,101726.34
2024-01-26T13:53:06.325Z,101728.53
2024-01-26T13:55:39.724Z,101729.31
2024-01-26T13:58:11.177Z,101727.91
2024-01-26T14:00:41.901Z,101730.66
2024-01-26T14:03:12.793Z,101735.06
2024-01-26T14:05:46.485Z,101740.59
2024-01-26T14:08:17.246Z,101740.31
2024-01-26T14:10:47.803Z,101746.94
2024-01-26T14:13:18.494Z,101745.00
2024-01-26T14:15:49.110Z,101743.34
2024-01-26T14:18:20.040Z,101748.34
2024-01-26T14:21:02.247Z,101757.97
2024-01-26T14:23:32.618Z,101752.72
2024-01-26T14:26:04.194Z,101747.22
2024-01-26T14:28:34.680Z,101752.72
2024-01-26T14:31:05.151Z,101753.88
2024-01-26T14:33:35.669Z,101754.97
2024-01-26T14:36:06.469Z,101752.22
2024-01-26T14:38:37.552Z,101756.09
2024-01-26T14:41:07.851Z,101759.38
2024-01-26T14:43:38.162Z,101754.38
2024-01-26T14:46:12.186Z,101751.09
2024-01-26T14:48:42.754Z,101748.34
2024-01-26T14:51:13.879Z,101754.97
2024-01-26T14:53:45.208Z,101755.78
2024-01-26T14:56:16.024Z,101756.91
2024-01-26T14:58:46.734Z,101757.72
2024-01-26T15:01:17.314Z,101752.72
2024-01-26T15:03:48.112Z,101760.19
2024-01-26T15:06:18.593Z,101762.13
2024-01-26T15:08:50.015Z,101767.88
2024-01-26T15:11:21.138Z,101776.72
2024-01-26T15:13:51.573Z,101767.66
2024-01-26T15:16:23.636Z,101775.91
2024-01-26T15:18:54.953Z,101764.91
2024-01-26T15:21:25.326Z,101777.25
2024-01-26T15:23:56.489Z,101775.63
2024-01-26T15:26:27.002Z,101769.94
2024-01-26T15:28:57.382Z,101768.06
2024-01-26T15:31:27.700Z,101768.66
2024-01-26T15:33:58.241Z,101771.97
2024-01-26T15:36:32.942Z,101765.13
2024-01-26T15:39:03.618Z,101766.69
2024-01-26T15:41:34.937Z,101763.88
2024-01-26T15:44:06.995Z,101764.97
2024-01-26T15:46:37.397Z,101764.97
2024-01-26T15:49:08.353Z,101761.41
2024-01-26T15:51:39.016Z,101766.59
2024-01-26T15:54:09.774Z,101764.41
2024-01-26T15:56:43.470Z,101766.03
2024-01-26T15:59:15.184Z,101772.34
2024-01-26T16:01:45.566Z,101756.69
2024-01-26T16:04:16.257Z,101764.41
2024-01-26T16:06:50.374Z,101757.53
2024-01-26T16:09:22.488Z,101761.09
2024-01-26T16:11:54.682Z,101757.25
2024-01-26T16:14:25.210Z,101756.69
2024-01-26T16:16:55.612Z,101757.00
2024-01-26T16:19:26.276Z,101750.66
2024-01-26T16:21:56.745Z,101752.28
2024-01-26T16:24:27.304Z,101741.56
2024-01-26T16:27:00.504Z,101739.09
2024-01-26T16:29:31.032Z,101741.84
2024-01-26T16:32:01.501Z,101732.50
2024-01-26T16:34:32.194Z,101731.66
2024-01-26T16:37:02.719Z,101726.44
2024-01-26T16:39:33.967Z,101727.78
2024-01-26T16:42:06.379Z,101734.19
2024-01-26T16:44:36.888Z,101728.91
2024-01-26T16:47:07.586Z,101723.69
2024-01-26T16:49:37.913Z,101725.59
2024-01-26T16:52:08.407Z,101718.19
2024-01-26T16:54:39.017Z,101717.06
2024-01-26T16:57:09.706Z,101715.97
2024-01-26T16:59:40.476Z,101714.88
2024-01-26T17:02:11.393Z,101717.09
2024-01-26T17:04:42.049Z,101717.09
2024-01-26T17:07:12.550Z,101705.28
2024-01-26T17:09:42.981Z,101706.13
2024-01-26T17:12:13.469Z,101706.66
2024-01-26T17:14:44.330Z,101704.19
2024-01-26T17:17:14.818Z,101692.06
2024-01-26T17:19:54.716Z,101691.53
2024-01-26T17:22:25.379Z,101696.50
2024-01-26T17:25:01.753Z,101692.63
2024-01-26T17:27:38.076Z,101695.69
2024-01-26T17:30:09.648Z,101690.75
2024-01-26T17:32:42.392Z,101695.44
2024-01-26T17:35:13.263Z,101696.25
2024-01-26T17:37:43.722Z,101691.00
2024-01-26T17:40:14.615Z,101691.84
2024-01-26T17:42:45.038Z,101696.81
2024-01-26T17:45:15.442Z,101692.41
2024-01-26T17:47:47.355Z,101678.09
2024-01-26T17:50:17.963Z,101685.25
2024-01-26T17:52:48.295Z,101686.34
2024-01-26T17:55:18.866Z,101673.38
2024-01-26T17:57:49.270Z,101681.66
2024-01-26T18:00:20.207Z,101681.38
2024-01-26T18:02:50.868Z,101671.47
2024-01-26T18:05:23.269Z,101671.47
2024-01-26T18:07:53.887Z,101668.72
2024-01-26T18:10:24.436Z,101682.19
2024-01-26T18:13:25.293Z,101676.97
2024-01-26T18:15:55.713Z,101669.53
2024-01-26T18:18:26.493Z,101671.75
2024-01-26T18:20:57.047Z,101669.06
2024-01-26T18:23:27.692Z,101668.22
2024-01-26T18:25:58.118Z,101670.41
2024-01-26T18:28:28.482Z,101679.19
2024-01-26T18:30:58.830Z,101664.34
2024-01-26T18:33:29.404Z,101667.06
2024-01-26T18:36:00.686Z,101664.88
2024-01-26T18:38:32.409Z,101666.84
2024-01-26T18:41:02.582Z,101666.84
2024-01-26T18:43:32.762Z,101656.09
2024-01-26T18:46:03.775Z,101652.81
2024-01-26T18:48:34.251Z,101655.28
2024-01-26T18:51:04.692Z,101651.69
2024-01-26T18:53:35.080Z,101648.41
2024-01-26T18:56:05.516Z,101643.41
2024-01-26T18:58:36.461Z,101647.28
2024-01-26T19:01:07.036Z,101639.63
2024-01-26T19:03:38.109Z,101639.31
2024-01-26T19:06:09.343Z,101641.25
2024-01-26T19:08:42.847Z,101642.09
2024-01-26T19:11:14.514Z,101642.38
2024-01-26T19:13:46.329Z,101643.75
2024-01-26T19:16:18.617Z,101636.34
2024-01-26T19:18:53.211Z,101628.31
2024-01-26T19:21:24.149Z,101633.50
2024-01-26T19:23:54.697Z,101616.97
2024-01-26T19:26:25.580Z,101622.50
2024-01-26T19:28:55.894Z,101623.59
2024-01-26T19:31:27.709Z,101620.63
2024-01-26T19:33:58.218Z,101612.00
2024-01-26T19:36:31.092Z,101610.94
2024-01-26T19:39:01.788Z,101612.31
2024-01-26T19:41:33.105Z,101610.94
2024-01-26T19:44:05.113Z,101615.34
2024-01-26T19:46:35.467Z,101602.16
2024-01-26T19:49:06.016Z,101601.63
2024-01-26T19:51:36.664Z,101604.66
2024-01-26T19:54:07.149Z,101609.91
2024-01-26T19:56:37.496Z,101606.03
2024-01-26T19:59:07.943Z,101604.38
2024-01-26T20:01:38.322Z,101614.88
2024-01-26T20:04:08.745Z,101610.16
2024-01-26T20:06:39.729Z,101602.75
2024-01-26T20:09:10.115Z,101610.16
2024-01-26T20:11:41.888Z,101607.16
2024-01-26T20:14:12.745Z,101598.63
2024-01-26T20:16:43.178Z,101598.03
2024-01-26T20:19:13.822Z,101593.09
2024-01-26T20:21:44.301Z,101586.50
2024-01-26T20:24:15.277Z,101584.03
2024-01-26T20:26:46.176Z,101583.22
2024-01-26T20:29:17.033Z,101583.22
2024-01-26T20:31:48.423Z,101581.28
2024-01-26T20:34:19.330Z,101585.44
2024-01-26T20:36:50.066Z,101592.59
2024-01-26T20:39:20.612Z,101590.34
2024-01-26T20:41:55.027Z,101587.59
2024-01-26T20:44:25.954Z,101590.34
2024-01-26T20:46:56.320Z,101590.34
2024-01-26T20:49:27.738Z,101595.63
2024-01-26T20:51:57.899Z,101592.59
2024-01-26T20:54:28.106Z,101592.59
2024-01-26T20:56:59.079Z,101601.13
2024-01-26T20:59:29.466Z,101605.00
2024-01-26T21:02:00.025Z,101593.41
2024-01-26T21:04:31.269Z,101596.19
2024-01-26T21:07:01.470Z,101599.78
2024-01-26T21:09:33.153Z,101600.91
2024-01-26T21:12:03.551Z,101607.75
2024-01-26T21:14:33.917Z,101615.47
2024-01-26T21:17:07.970Z,101613.00
2024-01-26T21:19:38.780Z,101609.41
2024-01-26T21:22:09.168Z,101616.31
2024-01-26T21:24:39.466Z,101609.69
2024-01-26T21:27:10.418Z,101608.88
2024-01-26T21:29:40.782Z,101600.34
2024-01-26T21:32:15.680Z,101609.13
2024-01-26T21:34:46.166Z,101607.50
2024-01-26T21:37:19.938Z,101605.53
2024-01-26T21:39:51.670Z,101601.72
2024-01-26T21:42:25.336Z,101612.22
2024-01-26T21:44:57.254Z,101610.81
2024-01-26T21:47:28.255Z,101604.47
2024-01-26T21:49:59.022Z,101610.50
2024-01-26T21:52:30.401Z,101610.28
2024-01-26T21:55:00.858Z,101603.97
2024-01-26T21:57:31.325Z,101608.63
2024-01-26T22:00:01.828Z,101617.72
2024-01-26T22:02:34.950Z,101610.84
2024-01-26T22:20:10.738Z,101633.84
2024-01-26T22:22:47.489Z,101622.28
2024-01-26T22:25:20.814Z,101636.88
2024-01-26T22:28:07.596Z,101633.03
2024-01-26T22:30:37.955Z,101634.06
2024-01-26T22:33:08.602Z,101631.84
2024-01-26T22:35:39.012Z,101646.16
2024-01-26T22:38:09.378Z,101640.94
2024-01-26T22:40:39.811Z,101644.75
2024-01-26T22:43:10.324Z,101649.16
2024-01-26T22:45:40.773Z,101649.97
2024-01-26T22:48:11.502Z,101647.22
2024-01-26T22:50:42.951Z,101648.06
2024-01-26T22:53:13.342Z,101648.31
2024-01-26T22:55:43.803Z,101646.09
2024-01-26T22:58:14.386Z,101655.75
2024-01-26T23:00:44.748Z,101654.91
2024-01-26T23:03:15.177Z,101659.59
2024-01-26T23:05:47.318Z,101655.44
2024-01-26T23:08:18.986Z,101659.53
2024-01-26T23:10:49.386Z,101663.72
2024-01-26T23:13:19.932Z,101666.16
2024-01-26T23:15:50.332Z,101678.00
2024-01-26T23:18:21.933Z,101679.66
2024-01-26T23:20:52.544Z,101684.34
2024-01-26T23:23:23.093Z,101677.69
2024-01-26T23:25:53.664Z,101679.91
2024-01-26T23:28:26.729Z,101685.16
2024-01-26T23:30:57.668Z,101680.78
2024-01-26T23:33:28.220Z,101684.06
2024-01-26T23:35:59.235Z,101689.03
2024-01-26T23:38:29.918Z,101689.34
2024-01-26T23:41:00.361Z,101674.47
2024-01-26T23:43:31.023Z,101681.63
2024-01-26T23:46:03.494Z,101687.72
2024-01-26T23:48:34.317Z,101697.09
2024-01-26T23:51:07.652Z,101698.97
2024-01-26T23:53:38.078Z,101702.88
2024-01-26T23:56:08.491Z,101706.16
2024-01-26T23:58:38.900Z,101698.72
